<<    Oktober 2010    >>
Datum    Temp.       Tempmin      Tempmax    Taup.       Taup.min      Taup.max    Feuchte    Feuchtemin    Feuchtemax    Druck    Druckmin    Druckmax    Regen    Wind    Benmax  
  01.10.2010  12,8    8,7    08:12    16,6    16:02  11,8    8,4    08:12    15,4    13:19  93,6    80    16:54    98    00:00  1013,5    1011    23:06    1015    09:37  1,8  3,2  15,8  
  02.10.2010  14,5    11,7    03:18    18,0    16:36  13,2    10,3    00:55    16,0    12:23  92,2    80    16:39    98    03:32  1010,8    1010    03:21    1012    00:00  8,1  7,2  23,0  
  03.10.2010  18,1    14,6    04:24    24,0    15:47  13,5    10,8    15:12    14,9    10:47  76,8    44    15:12    98    02:35  1006,4    1003    16:21    1010    00:00  2,7  7,0  30,6  
  04.10.2010  17,3    15,5    23:37    21,2    15:50  12,0    10,6    17:01    13,3    00:19  71,5    53    16:06    80    03:42  1002,4    1000    18:21    1004    01:06  0,0  4,9  23,0  
  05.10.2010  17,1    14,7    07:39    21,4    15:37  13,7    11,8    01:33    16,5    12:09  81,3    63    15:45    98    09:14  1004,9    1001    02:51    1009    22:06  0,0  2,3  19,1  
  06.10.2010  16,8    14,2    03:40    19,9    17:10  12,9    12,2    14:08    13,6    10:17  78,2    63    13:45    91    04:03  1011,0    1009    00:00    1016    22:05  0,0  4,7  24,5  
  07.10.2010  17,3    15,0    00:18    21,1    16:03  13,6    11,8    20:58    15,1    12:31  79,9    62    15:33    93    07:42  1018,8    1016    00:00    1020    09:20  0,0  2,6  16,9  
  08.10.2010  15,8    13,0    21:25    19,1    16:32  11,5    10,2    06:15    12,8    15:35  75,9    62    17:17    91    22:29  1018,3    1017    15:50    1019    00:00  0,0  4,5  24,5  
  09.10.2010  15,0    11,7    07:03    20,3    15:43  7,7    3,9    19:23    11,8    00:13  64,2    37    17:00    87    00:00  1017,0    1015    14:35    1019    02:05  0,0  3,4  23,0  
  10.10.2010  13,1    6,1    08:07    21,1    16:43  3,9    1,0    17:53    6,0    09:26  56,6    28    17:40    84    08:54  1014,1    1012    17:04    1016    00:00  0,0  1,9  15,1  
  11.10.2010  9,6    3,2    07:49    18,6    16:07  2,8    0,0    20:03    7,7    15:35  65,7    37    16:47    89    09:20  1015,7    1014    03:04    1018    23:59  0,0  2,1  19,4  
  12.10.2010  6,4    2,1    07:34    13,3    13:47  2,8    0,0    06:55    7,4    13:08  78,6    58    15:04    93    09:48  1018,0    1017    05:49    1019    03:49  0,0  3,1  22,7  
  13.10.2010  6,4    2,4    02:45    11,8    16:17  2,7    0,8    23:33    5,3    10:24  79,3    53    16:33    96    06:17  1018,0    1017    01:49    1019    09:19  0,0  1,1  13,7  
  14.10.2010  6,4    1,0    05:48    11,0    15:58  4,0    -0,6    04:44    8,3    23:59  85,4    70    15:58    97    10:04  1018,1    1017    01:05    1019    09:49  0,0  0,5  10,4  
  15.10.2010  11,0    9,4    23:59    14,0    14:42  8,8    7,0    18:16    10,4    09:50  87,2    67    14:54    98    23:59  1014,9    1010    23:59    1019    00:18  11,7  1,1  15,8  
  16.10.2010  8,7    7,2    18:07    11,8    13:34  7,0    3,2    22:19    10,4    12:07  90,0    73    22:19    98    00:00  1012,0    1008    04:18    1018    23:59  1,8  0,0  9,7  
  17.10.2010  7,3    6,5    07:51    8,2    15:54  3,8    3,2    04:23    4,5    12:05  78,2    75    14:17    83    10:00  1021,6    1018    00:00    1024    19:33  0,0  1,6  20,2  
  18.10.2010  8,2    7,0    21:00    11,3    16:11  3,8    2,1    14:49    6,1    10:58  74,4    54    14:49    86    08:11  1021,4    1016    23:18    1024    09:18  0,0  1,8  16,9  
  19.10.2010  9,2    7,1    23:01    15,1    14:30  5,6    3,1    00:00    10,5    14:30  78,6    61    16:39    96    22:32  1008,5    1005    18:10    1016    00:00  5,4  4,1  7,6  
  20.10.2010  7,0    4,2    23:59    10,5    14:37  5,0    1,0    15:09    7,3    11:19  87,7    56    15:07    97    10:28  1010,9    1005    05:10    1020    23:40  2,7  2,8  6,8  
  21.10.2010  5,7    2,5    23:59    10,2    15:17  0,2    -3,5    17:37    3,5    08:01  71,1    40    14:34    97    05:12  1023,1    1019    00:40    1025    16:40  0,9  2,6  4,3  
  22.10.2010  6,7    1,4    03:48    11,3    16:04  1,1    -2,3    00:01    3,6    16:04  67,4    57    13:57    79    04:20  1021,1    1019    23:59    1024    00:00  0,0  0,0  0,0  
  23.10.2010  6,7    2,1    08:28    10,3    13:35  1,2    -1,2    08:28    5,7    23:59  68,5    47    14:00    83    23:39  1010,1    1003    18:55    1019    00:00  0,0  0,0  0,0  
  24.10.2010  8,3    3,7    23:41    12,3    15:26  4,1    1,6    16:28    6,1    05:17  76,1    50    16:00    90    23:59  1009,6    1003    01:39    1016    23:59  0,0  0,1  7,6  
  25.10.2010  4,7    0,6    07:55    11,2    14:52  1,0    -0,9    23:59    5,4    11:25  79,4    46    14:47    98    07:04  1023,0    1016    00:00    1029    22:24  0,0  2,2  22,3  
  26.10.2010  4,8    -1,3    07:47    11,0    15:34  1,0    -2,3    06:21    5,3    12:38  77,9    54    23:46    98    10:57  1028,6    1026    23:07    1030    05:24  0,0  0,5  16,2  
  27.10.2010  9,1    7,3    10:04    12,0    16:59  3,2    -1,3    04:51    8,2    13:32  67,2    50    04:51    93    12:11  1023,6    1021    16:22    1027    00:00  1,8  3,4  19,8  
  28.10.2010  10,4    7,9    23:52    14,4    13:56  5,3    1,9    04:09    8,2    11:37  70,8    59    00:00    81    08:10  1020,3    1019    07:07    1022    00:00  0,0  1,9  20,2  
  29.10.2010  10,5    5,6    04:36    16,1    16:29  4,9    3,2    17:11    7,2    09:58  71,2    44    16:27    95    07:06  1011,8    1003    21:15    1020    00:15  0,0  5,4  27,4  
  30.10.2010  12,0    6,4    23:47    14,9    15:18  5,4    3,8    06:47    8,4    17:08  65,1    54    00:00    92    23:12  1004,1    1003    01:30    1007    20:45  0,0  3,3  20,2  
  31.10.2010  9,8    6,5    00:01    13,8    14:11  9,0    5,5    00:01    12,7    13:07  95,1    82    15:23    98    23:59  1003,7    1002    05:31    1007    21:42  4,5  0,0  0,0  
 
  Gesamt  10,5  -1,3            24,0            6,3  -3,5            16,5            76,9  28            98            1014,7  1000            1030            41,4  2,6  30,6  
 
  Mittelwert  10,5  7,0            15,0            6,3  3,7            9,3            76,9  56,7            92,1            1014,7  1011,5            1018,1            1,3  2,6  16,0  
  Minimum  4,7  -1,3            8,2            0,2  -3,5            3,5            56,6  28,0            79,0            1002,4  1000,0            1004,0            0,0  0,0  0,0  
  Maximum  18,1  15,5            24,0            13,7  12,2            16,5            95,1  82,0            98,0            1028,6  1026,0            1030,0            11,7  7,2  30,6  

  Heie Tage    Tmax >=30C     0  
  Sommertage    Tmax >=25C     0  
  Warme Tage    Tmax >=20C     6  
  Kalte Tage    Tmax  <10C     1  
  Frosttage    Tmin  <0C     1  
  Eistage    Tmax  <0C     0  
  Regentage > 0 mm    10  
  Regentage > 2 mm    6  
  Regentage > 10 mm    1  
  Regentage > 20 mm    0